sensor_id;sensor_type;location;lat;lon;timestamp;temperature;humidity
32594;DHT22;19018;49.046;9.140;2022-09-01T00:01:23;19.60;50.50
32594;DHT22;19018;49.046;9.140;2022-09-01T00:03:55;19.50;50.00
32594;DHT22;19018;49.046;9.140;2022-09-01T00:06:28;19.50;50.00
32594;DHT22;19018;49.046;9.140;2022-09-01T00:08:54;19.50;50.50
32594;DHT22;19018;49.046;9.140;2022-09-01T00:11:21;19.50;50.50
32594;DHT22;19018;49.046;9.140;2022-09-01T00:13:48;19.50;50.10
32594;DHT22;19018;49.046;9.140;2022-09-01T00:16:14;19.40;50.50
32594;DHT22;19018;49.046;9.140;2022-09-01T00:18:41;19.40;50.10
32594;DHT22;19018;49.046;9.140;2022-09-01T00:21:07;19.40;50.70
32594;DHT22;19018;49.046;9.140;2022-09-01T00:23:33;19.40;50.40
32594;DHT22;19018;49.046;9.140;2022-09-01T00:25:59;19.30;50.40
32594;DHT22;19018;49.046;9.140;2022-09-01T00:28:24;19.30;50.20
32594;DHT22;19018;49.046;9.140;2022-09-01T00:30:50;19.30;50.80
32594;DHT22;19018;49.046;9.140;2022-09-01T00:33:15;19.20;50.20
32594;DHT22;19018;49.046;9.140;2022-09-01T00:35:41;19.30;50.30
32594;DHT22;19018;49.046;9.140;2022-09-01T00:38:06;19.30;50.30
32594;DHT22;19018;49.046;9.140;2022-09-01T00:40:32;19.20;50.20
32594;DHT22;19018;49.046;9.140;2022-09-01T00:42:58;19.20;50.20
32594;DHT22;19018;49.046;9.140;2022-09-01T00:45:25;19.20;50.30
32594;DHT22;19018;49.046;9.140;2022-09-01T00:47:50;19.20;50.20
32594;DHT22;19018;49.046;9.140;2022-09-01T00:50:17;19.20;50.80
32594;DHT22;19018;49.046;9.140;2022-09-01T00:52:45;19.10;50.30
32594;DHT22;19018;49.046;9.140;2022-09-01T00:55:14;19.10;50.30
32594;DHT22;19018;49.046;9.140;2022-09-01T00:57:40;19.10;50.40
32594;DHT22;19018;49.046;9.140;2022-09-01T01:00:08;19.10;50.40
32594;DHT22;19018;49.046;9.140;2022-09-01T01:02:36;19.10;50.40
32594;DHT22;19018;49.046;9.140;2022-09-01T01:05:04;19.00;50.40
32594;DHT22;19018;49.046;9.140;2022-09-01T01:07:29;19.00;50.40
32594;DHT22;19018;49.046;9.140;2022-09-01T01:09:55;19.00;50.40
32594;DHT22;19018;49.046;9.140;2022-09-01T01:12:21;19.00;50.90
32594;DHT22;19018;49.046;9.140;2022-09-01T01:14:48;18.90;50.90
32594;DHT22;19018;49.046;9.140;2022-09-01T01:17:17;18.90;50.40
32594;DHT22;19018;49.046;9.140;2022-09-01T01:25:14;18.80;50.40
32594;DHT22;19018;49.046;9.140;2022-09-01T01:27:43;18.80;50.40
32594;DHT22;19018;49.046;9.140;2022-09-01T01:30:09;18.70;50.40
32594;DHT22;19018;49.046;9.140;2022-09-01T01:32:37;18.70;50.40
32594;DHT22;19018;49.046;9.140;2022-09-01T01:35:07;18.70;50.40
32594;DHT22;19018;49.046;9.140;2022-09-01T01:37:45;18.70;50.40
32594;DHT22;19018;49.046;9.140;2022-09-01T01:40:16;18.60;50.40
32594;DHT22;19018;49.046;9.140;2022-09-01T01:42:43;18.60;50.40
32594;DHT22;19018;49.046;9.140;2022-09-01T01:45:11;18.60;50.50
32594;DHT22;19018;49.046;9.140;2022-09-01T01:47:37;18.60;50.50
32594;DHT22;19018;49.046;9.140;2022-09-01T01:50:04;18.60;51.10
32594;DHT22;19018;49.046;9.140;2022-09-01T01:52:34;18.60;50.60
32594;DHT22;19018;49.046;9.140;2022-09-01T01:55:00;18.50;50.60
32594;DHT22;19018;49.046;9.140;2022-09-01T01:57:25;18.50;50.60
32594;DHT22;19018;49.046;9.140;2022-09-01T01:59:52;18.40;50.60
32594;DHT22;19018;49.046;9.140;2022-09-01T02:02:18;18.50;50.70
32594;DHT22;19018;49.046;9.140;2022-09-01T02:04:44;18.40;50.70
32594;DHT22;19018;49.046;9.140;2022-09-01T02:07:10;18.40;50.70
32594;DHT22;19018;49.046;9.140;2022-09-01T02:09:37;18.40;50.70
32594;DHT22;19018;49.046;9.140;2022-09-01T02:12:05;18.30;50.70
32594;DHT22;19018;49.046;9.140;2022-09-01T02:14:32;18.30;50.70
32594;DHT22;19018;49.046;9.140;2022-09-01T02:16:57;18.30;50.70
32594;DHT22;19018;49.046;9.140;2022-09-01T02:19:23;18.30;50.80
32594;DHT22;19018;49.046;9.140;2022-09-01T02:21:49;18.30;50.70
32594;DHT22;19018;49.046;9.140;2022-09-01T02:24:18;18.20;50.70
32594;DHT22;19018;49.046;9.140;2022-09-01T02:26:44;18.20;51.30
32594;DHT22;19018;49.046;9.140;2022-09-01T02:29:14;18.20;50.80
32594;DHT22;19018;49.046;9.140;2022-09-01T02:31:44;18.10;50.80
32594;DHT22;19018;49.046;9.140;2022-09-01T02:34:10;18.10;50.80
32594;DHT22;19018;49.046;9.140;2022-09-01T02:36:42;18.10;50.80
32594;DHT22;19018;49.046;9.140;2022-09-01T02:39:15;18.00;50.80
32594;DHT22;19018;49.046;9.140;2022-09-01T02:41:41;18.00;51.30
32594;DHT22;19018;49.046;9.140;2022-09-01T02:44:07;18.00;50.80
32594;DHT22;19018;49.046;9.140;2022-09-01T02:46:39;17.90;50.80
32594;DHT22;19018;49.046;9.140;2022-09-01T02:49:09;17.90;50.80
32594;DHT22;19018;49.046;9.140;2022-09-01T02:51:40;17.90;50.90
32594;DHT22;19018;49.046;9.140;2022-09-01T02:54:05;17.80;50.80
32594;DHT22;19018;49.046;9.140;2022-09-01T02:56:31;17.80;50.90
32594;DHT22;19018;49.046;9.140;2022-09-01T02:58:57;17.80;50.90
32594;DHT22;19018;49.046;9.140;2022-09-01T03:01:27;17.70;50.90
32594;DHT22;19018;49.046;9.140;2022-09-01T03:03:54;17.70;50.90
32594;DHT22;19018;49.046;9.140;2022-09-01T03:06:20;17.70;51.00
32594;DHT22;19018;49.046;9.140;2022-09-01T03:08:52;17.60;50.90
32594;DHT22;19018;49.046;9.140;2022-09-01T03:11:19;17.60;50.90
32594;DHT22;19018;49.046;9.140;2022-09-01T03:13:45;17.60;50.90
32594;DHT22;19018;49.046;9.140;2022-09-01T03:16:11;17.60;51.00
32594;DHT22;19018;49.046;9.140;2022-09-01T03:18:37;17.50;51.00
32594;DHT22;19018;49.046;9.140;2022-09-01T03:21:03;17.50;51.00
32594;DHT22;19018;49.046;9.140;2022-09-01T03:23:30;17.50;51.00
32594;DHT22;19018;49.046;9.140;2022-09-01T03:25:56;17.40;51.00
32594;DHT22;19018;49.046;9.140;2022-09-01T03:28:22;17.40;51.00
32594;DHT22;19018;49.046;9.140;2022-09-01T03:30:52;17.40;51.00
32594;DHT22;19018;49.046;9.140;2022-09-01T03:33:19;17.30;51.00
32594;DHT22;19018;49.046;9.140;2022-09-01T03:35:45;17.30;51.10
32594;DHT22;19018;49.046;9.140;2022-09-01T03:38:10;17.20;51.10
32594;DHT22;19018;49.046;9.140;2022-09-01T03:40:37;17.20;51.10
32594;DHT22;19018;49.046;9.140;2022-09-01T03:43:04;17.20;51.10
32594;DHT22;19018;49.046;9.140;2022-09-01T03:45:30;17.20;51.20
32594;DHT22;19018;49.046;9.140;2022-09-01T03:48:00;17.10;51.10
32594;DHT22;19018;49.046;9.140;2022-09-01T03:50:31;17.10;51.20
32594;DHT22;19018;49.046;9.140;2022-09-01T03:52:57;17.10;51.20
32594;DHT22;19018;49.046;9.140;2022-09-01T03:55:27;17.10;51.20
32594;DHT22;19018;49.046;9.140;2022-09-01T03:57:55;17.10;51.30
32594;DHT22;19018;49.046;9.140;2022-09-01T04:00:21;17.00;51.20
32594;DHT22;19018;49.046;9.140;2022-09-01T04:02:50;17.00;51.30
32594;DHT22;19018;49.046;9.140;2022-09-01T04:05:19;16.90;51.20
32594;DHT22;19018;49.046;9.140;2022-09-01T04:07:46;16.90;51.30
32594;DHT22;19018;49.046;9.140;2022-09-01T04:10:13;16.90;51.30
32594;DHT22;19018;49.046;9.140;2022-09-01T04:12:39;16.90;51.90
32594;DHT22;19018;49.046;9.140;2022-09-01T04:15:04;16.80;51.30
32594;DHT22;19018;49.046;9.140;2022-09-01T04:17:30;16.80;51.30
32594;DHT22;19018;49.046;9.140;2022-09-01T04:20:14;16.80;51.30
32594;DHT22;19018;49.046;9.140;2022-09-01T04:22:44;16.80;51.30
32594;DHT22;19018;49.046;9.140;2022-09-01T04:25:12;16.70;51.30
32594;DHT22;19018;49.046;9.140;2022-09-01T04:27:38;16.70;51.40
32594;DHT22;19018;49.046;9.140;2022-09-01T04:30:05;16.70;51.40
32594;DHT22;19018;49.046;9.140;2022-09-01T04:32:38;16.60;51.40
32594;DHT22;19018;49.046;9.140;2022-09-01T04:35:05;16.60;51.40
32594;DHT22;19018;49.046;9.140;2022-09-01T04:37:31;16.60;51.40
32594;DHT22;19018;49.046;9.140;2022-09-01T04:40:00;16.60;51.40
32594;DHT22;19018;49.046;9.140;2022-09-01T04:42:27;16.50;51.40
32594;DHT22;19018;49.046;9.140;2022-09-01T04:44:53;16.50;51.40
32594;DHT22;19018;49.046;9.140;2022-09-01T04:47:21;16.50;51.50
32594;DHT22;19018;49.046;9.140;2022-09-01T04:49:54;16.50;51.50
32594;DHT22;19018;49.046;9.140;2022-09-01T04:52:22;16.50;51.60
32594;DHT22;19018;49.046;9.140;2022-09-01T04:54:48;16.40;51.50
32594;DHT22;19018;49.046;9.140;2022-09-01T04:57:13;16.40;51.50
32594;DHT22;19018;49.046;9.140;2022-09-01T04:59:41;16.40;51.60
32594;DHT22;19018;49.046;9.140;2022-09-01T05:02:07;16.40;51.60
32594;DHT22;19018;49.046;9.140;2022-09-01T05:04:33;16.40;51.60
32594;DHT22;19018;49.046;9.140;2022-09-01T05:09:29;16.30;51.70
32594;DHT22;19018;49.046;9.140;2022-09-01T05:11:55;16.30;51.70
32594;DHT22;19018;49.046;9.140;2022-09-01T05:14:23;16.30;51.70
32594;DHT22;19018;49.046;9.140;2022-09-01T05:16:49;16.30;51.70
32594;DHT22;19018;49.046;9.140;2022-09-01T05:19:18;16.30;51.70
32594;DHT22;19018;49.046;9.140;2022-09-01T05:21:45;16.20;51.60
32594;DHT22;19018;49.046;9.140;2022-09-01T05:24:12;16.20;51.60
32594;DHT22;19018;49.046;9.140;2022-09-01T05:26:39;16.20;51.60
32594;DHT22;19018;49.046;9.140;2022-09-01T05:29:05;16.20;51.70
32594;DHT22;19018;49.046;9.140;2022-09-01T05:31:38;16.20;51.70
32594;DHT22;19018;49.046;9.140;2022-09-01T05:34:04;16.20;52.90
32594;DHT22;19018;49.046;9.140;2022-09-01T05:36:34;16.20;52.60
32594;DHT22;19018;49.046;9.140;2022-09-01T05:39:01;16.20;53.20
32594;DHT22;19018;49.046;9.140;2022-09-01T05:41:26;16.20;52.60
32594;DHT22;19018;49.046;9.140;2022-09-01T05:43:52;16.20;53.70
32594;DHT22;19018;49.046;9.140;2022-09-01T05:46:22;16.30;52.80
32594;DHT22;19018;49.046;9.140;2022-09-01T05:48:49;16.30;52.70
32594;DHT22;19018;49.046;9.140;2022-09-01T05:51:15;16.20;53.20
32594;DHT22;19018;49.046;9.140;2022-09-01T05:53:51;16.30;53.10
32594;DHT22;19018;49.046;9.140;2022-09-01T05:56:17;16.30;52.90
32594;DHT22;19018;49.046;9.140;2022-09-01T05:58:44;16.30;53.00
32594;DHT22;19018;49.046;9.140;2022-09-01T06:01:18;16.40;53.10
32594;DHT22;19018;49.046;9.140;2022-09-01T06:03:53;16.40;53.20
32594;DHT22;19018;49.046;9.140;2022-09-01T06:06:23;16.50;53.80
32594;DHT22;19018;49.046;9.140;2022-09-01T06:08:49;16.50;54.40
32594;DHT22;19018;49.046;9.140;2022-09-01T06:11:15;16.50;54.70
32594;DHT22;19018;49.046;9.140;2022-09-01T06:13:42;16.60;54.70
32594;DHT22;19018;49.046;9.140;2022-09-01T06:16:09;16.60;55.30
32594;DHT22;19018;49.046;9.140;2022-09-01T06:18:37;16.70;54.50
32594;DHT22;19018;49.046;9.140;2022-09-01T06:21:03;16.70;54.90
32594;DHT22;19018;49.046;9.140;2022-09-01T06:23:29;16.70;56.00
32594;DHT22;19018;49.046;9.140;2022-09-01T06:25:55;16.80;56.00
32594;DHT22;19018;49.046;9.140;2022-09-01T06:28:21;16.90;55.30
32594;DHT22;19018;49.046;9.140;2022-09-01T06:30:48;16.90;55.80
32594;DHT22;19018;49.046;9.140;2022-09-01T06:33:14;17.00;55.70
32594;DHT22;19018;49.046;9.140;2022-09-01T06:35:40;17.00;54.70
32594;DHT22;19018;49.046;9.140;2022-09-01T06:38:07;17.10;54.60
32594;DHT22;19018;49.046;9.140;2022-09-01T06:40:34;17.10;54.60
32594;DHT22;19018;49.046;9.140;2022-09-01T06:43:00;17.20;54.60
32594;DHT22;19018;49.046;9.140;2022-09-01T06:45:33;17.20;55.10
32594;DHT22;19018;49.046;9.140;2022-09-01T06:47:59;17.20;54.90
32594;DHT22;19018;49.046;9.140;2022-09-01T06:50:25;17.30;55.00
32594;DHT22;19018;49.046;9.140;2022-09-01T06:52:52;17.40;55.70
32594;DHT22;19018;49.046;9.140;2022-09-01T06:55:37;17.40;55.70
32594;DHT22;19018;49.046;9.140;2022-09-01T06:58:04;17.50;56.70
32594;DHT22;19018;49.046;9.140;2022-09-01T07:00:30;17.50;58.50
32594;DHT22;19018;49.046;9.140;2022-09-01T07:02:56;17.70;60.00
32594;DHT22;19018;49.046;9.140;2022-09-01T07:05:22;17.70;61.50
32594;DHT22;19018;49.046;9.140;2022-09-01T07:07:49;17.80;63.90
32594;DHT22;19018;49.046;9.140;2022-09-01T07:10:19;17.90;60.90
32594;DHT22;19018;49.046;9.140;2022-09-01T07:12:47;17.90;62.40
32594;DHT22;19018;49.046;9.140;2022-09-01T07:15:14;18.00;61.80
32594;DHT22;19018;49.046;9.140;2022-09-01T07:17:40;18.10;62.20
32594;DHT22;19018;49.046;9.140;2022-09-01T07:20:06;18.20;62.80
32594;DHT22;19018;49.046;9.140;2022-09-01T07:22:33;18.20;63.20
32594;DHT22;19018;49.046;9.140;2022-09-01T07:24:59;18.40;61.40
32594;DHT22;19018;49.046;9.140;2022-09-01T07:27:25;18.50;63.70
32594;DHT22;19018;49.046;9.140;2022-09-01T07:29:51;18.60;62.90
32594;DHT22;19018;49.046;9.140;2022-09-01T07:32:21;18.60;62.50
32594;DHT22;19018;49.046;9.140;2022-09-01T07:34:47;18.70;64.50
32594;DHT22;19018;49.046;9.140;2022-09-01T07:37:13;18.80;63.80
32594;DHT22;19018;49.046;9.140;2022-09-01T07:39:38;18.90;63.20
32594;DHT22;19018;49.046;9.140;2022-09-01T07:42:09;19.00;63.30
32594;DHT22;19018;49.046;9.140;2022-09-01T07:44:36;19.00;64.30
32594;DHT22;19018;49.046;9.140;2022-09-01T07:47:02;19.10;63.60
32594;DHT22;19018;49.046;9.140;2022-09-01T07:49:29;19.30;63.30
32594;DHT22;19018;49.046;9.140;2022-09-01T07:51:54;19.30;65.00
32594;DHT22;19018;49.046;9.140;2022-09-01T07:54:21;19.40;62.40
32594;DHT22;19018;49.046;9.140;2022-09-01T07:56:49;19.50;63.10
32594;DHT22;19018;49.046;9.140;2022-09-01T07:59:14;19.70;63.70
32594;DHT22;19018;49.046;9.140;2022-09-01T08:01:40;19.70;63.50
32594;DHT22;19018;49.046;9.140;2022-09-01T08:04:07;19.80;62.60
32594;DHT22;19018;49.046;9.140;2022-09-01T08:06:33;19.90;63.00
32594;DHT22;19018;49.046;9.140;2022-09-01T08:08:59;20.00;63.90
32594;DHT22;19018;49.046;9.140;2022-09-01T08:11:27;20.10;63.00
32594;DHT22;19018;49.046;9.140;2022-09-01T08:13:53;20.10;63.20
32594;DHT22;19018;49.046;9.140;2022-09-01T08:16:19;20.40;62.10
32594;DHT22;19018;49.046;9.140;2022-09-01T08:18:45;20.40;62.70
32594;DHT22;19018;49.046;9.140;2022-09-01T08:21:13;20.50;62.80
32594;DHT22;19018;49.046;9.140;2022-09-01T08:23:39;20.70;61.70
32594;DHT22;19018;49.046;9.140;2022-09-01T08:26:06;20.70;61.50
32594;DHT22;19018;49.046;9.140;2022-09-01T08:28:32;21.00;61.00
32594;DHT22;19018;49.046;9.140;2022-09-01T08:30:58;21.10;61.00
32594;DHT22;19018;49.046;9.140;2022-09-01T08:33:24;21.20;61.00
32594;DHT22;19018;49.046;9.140;2022-09-01T08:35:50;21.20;61.40
32594;DHT22;19018;49.046;9.140;2022-09-01T08:38:16;21.40;60.20
32594;DHT22;19018;49.046;9.140;2022-09-01T08:40:42;21.50;60.10
32594;DHT22;19018;49.046;9.140;2022-09-01T08:43:11;21.60;59.70
32594;DHT22;19018;49.046;9.140;2022-09-01T08:45:46;21.70;59.40
32594;DHT22;19018;49.046;9.140;2022-09-01T08:48:14;21.70;59.10
32594;DHT22;19018;49.046;9.140;2022-09-01T08:50:40;21.80;58.90
32594;DHT22;19018;49.046;9.140;2022-09-01T08:53:26;21.90;58.80
32594;DHT22;19018;49.046;9.140;2022-09-01T08:55:57;22.00;58.60
32594;DHT22;19018;49.046;9.140;2022-09-01T08:58:23;22.00;58.50
32594;DHT22;19018;49.046;9.140;2022-09-01T09:00:53;22.10;58.30
32594;DHT22;19018;49.046;9.140;2022-09-01T09:08:23;22.30;58.00
32594;DHT22;19018;49.046;9.140;2022-09-01T09:10:59;22.30;58.40
32594;DHT22;19018;49.046;9.140;2022-09-01T09:16:27;22.40;57.50
32594;DHT22;19018;49.046;9.140;2022-09-01T09:19:17;22.50;57.40
32594;DHT22;19018;49.046;9.140;2022-09-01T09:21:40;22.50;57.30
32594;DHT22;19018;49.046;9.140;2022-09-01T09:26:51;22.50;57.80
32594;DHT22;19018;49.046;9.140;2022-09-01T09:29:17;22.60;57.30
32594;DHT22;19018;49.046;9.140;2022-09-01T09:31:44;22.60;57.10
32594;DHT22;19018;49.046;9.140;2022-09-01T09:34:33;22.60;57.10
32594;DHT22;19018;49.046;9.140;2022-09-01T09:37:00;22.70;57.50
32594;DHT22;19018;49.046;9.140;2022-09-01T09:39:26;22.60;57.20
32594;DHT22;19018;49.046;9.140;2022-09-01T09:42:26;22.70;57.00
32594;DHT22;19018;49.046;9.140;2022-09-01T09:44:48;22.70;56.80
32594;DHT22;19018;49.046;9.140;2022-09-01T09:52:46;22.70;56.60
32594;DHT22;19018;49.046;9.140;2022-09-01T09:55:25;22.70;56.50
32594;DHT22;19018;49.046;9.140;2022-09-01T09:57:52;22.70;56.50
32594;DHT22;19018;49.046;9.140;2022-09-01T10:00:27;22.70;56.90
32594;DHT22;19018;49.046;9.140;2022-09-01T10:02:54;22.70;56.30
32594;DHT22;19018;49.046;9.140;2022-09-01T10:07:45;22.70;56.30
32594;DHT22;19018;49.046;9.140;2022-09-01T10:10:26;22.70;56.20
32594;DHT22;19018;49.046;9.140;2022-09-01T10:12:52;22.70;56.10
32594;DHT22;19018;49.046;9.140;2022-09-01T10:15:19;22.80;56.20
32594;DHT22;19018;49.046;9.140;2022-09-01T10:17:45;22.80;56.10
32594;DHT22;19018;49.046;9.140;2022-09-01T10:20:22;22.70;56.10
32594;DHT22;19018;49.046;9.140;2022-09-01T10:22:48;22.80;56.10
32594;DHT22;19018;49.046;9.140;2022-09-01T10:25:47;22.80;56.00
32594;DHT22;19018;49.046;9.140;2022-09-01T10:28:08;22.80;56.50
32594;DHT22;19018;49.046;9.140;2022-09-01T10:30:36;22.70;56.10
32594;DHT22;19018;49.046;9.140;2022-09-01T10:33:06;22.80;56.00
32594;DHT22;19018;49.046;9.140;2022-09-01T10:35:36;22.80;56.50
32594;DHT22;19018;49.046;9.140;2022-09-01T10:38:05;22.80;56.10
32594;DHT22;19018;49.046;9.140;2022-09-01T10:42:59;22.80;55.90
32594;DHT22;19018;49.046;9.140;2022-09-01T10:45:35;22.90;55.80
32594;DHT22;19018;49.046;9.140;2022-09-01T10:50:52;22.90;55.90
32594;DHT22;19018;49.046;9.140;2022-09-01T10:56:02;22.90;55.80
32594;DHT22;19018;49.046;9.140;2022-09-01T11:01:00;22.90;55.70
32594;DHT22;19018;49.046;9.140;2022-09-01T11:03:36;23.00;55.70
32594;DHT22;19018;49.046;9.140;2022-09-01T11:06:03;23.00;55.60
32594;DHT22;19018;49.046;9.140;2022-09-01T11:10:56;23.00;55.60
32594;DHT22;19018;49.046;9.140;2022-09-01T11:15:52;23.10;55.50
32594;DHT22;19018;49.046;9.140;2022-09-01T11:18:25;23.10;55.50
32594;DHT22;19018;49.046;9.140;2022-09-01T11:20:53;23.10;55.40
32594;DHT22;19018;49.046;9.140;2022-09-01T11:23:26;23.20;55.50
32594;DHT22;19018;49.046;9.140;2022-09-01T11:25:56;23.20;55.40
32594;DHT22;19018;49.046;9.140;2022-09-01T11:30:55;23.30;55.50
32594;DHT22;19018;49.046;9.140;2022-09-01T11:41:25;23.40;55.90
32594;DHT22;19018;49.046;9.140;2022-09-01T11:43:54;23.50;55.90
32594;DHT22;19018;49.046;9.140;2022-09-01T11:46:32;23.50;56.50
32594;DHT22;19018;49.046;9.140;2022-09-01T11:49:02;23.60;55.90
32594;DHT22;19018;49.046;9.140;2022-09-01T11:51:43;23.60;56.00
32594;DHT22;19018;49.046;9.140;2022-09-01T11:54:10;23.80;56.00
32594;DHT22;19018;49.046;9.140;2022-09-01T11:56:35;23.80;56.00
32594;DHT22;19018;49.046;9.140;2022-09-01T11:59:01;23.80;56.00
32594;DHT22;19018;49.046;9.140;2022-09-01T12:01:36;23.90;55.90
32594;DHT22;19018;49.046;9.140;2022-09-01T12:07:05;24.00;55.70
32594;DHT22;19018;49.046;9.140;2022-09-01T12:09:35;24.10;55.60
32594;DHT22;19018;49.046;9.140;2022-09-01T12:12:02;24.20;55.60
32594;DHT22;19018;49.046;9.140;2022-09-01T12:14:27;24.20;55.20
32594;DHT22;19018;49.046;9.140;2022-09-01T12:17:00;24.20;55.30
32594;DHT22;19018;49.046;9.140;2022-09-01T12:19:28;24.30;55.20
32594;DHT22;19018;49.046;9.140;2022-09-01T12:21:58;24.30;54.80
32594;DHT22;19018;49.046;9.140;2022-09-01T12:24:24;24.30;55.20
32594;DHT22;19018;49.046;9.140;2022-09-01T12:26:51;24.40;55.00
32594;DHT22;19018;49.046;9.140;2022-09-01T12:29:18;24.40;54.70
32594;DHT22;19018;49.046;9.140;2022-09-01T12:31:45;24.40;54.90
32594;DHT22;19018;49.046;9.140;2022-09-01T12:34:24;24.50;54.50
32594;DHT22;19018;49.046;9.140;2022-09-01T12:37:09;24.60;54.80
32594;DHT22;19018;49.046;9.140;2022-09-01T12:39:42;24.60;55.00
32594;DHT22;19018;49.046;9.140;2022-09-01T12:44:53;24.80;55.20
32594;DHT22;19018;49.046;9.140;2022-09-01T12:52:50;25.10;55.20
32594;DHT22;19018;49.046;9.140;2022-09-01T12:57:47;25.20;55.30
32594;DHT22;19018;49.046;9.140;2022-09-01T13:00:22;25.30;54.60
32594;DHT22;19018;49.046;9.140;2022-09-01T13:02:49;25.40;54.10
32594;DHT22;19018;49.046;9.140;2022-09-01T13:07:45;25.50;54.00
32594;DHT22;19018;49.046;9.140;2022-09-01T13:10:11;25.50;53.60
32594;DHT22;19018;49.046;9.140;2022-09-01T13:12:41;25.60;53.90
32594;DHT22;19018;49.046;9.140;2022-09-01T13:15:07;25.70;53.30
32594;DHT22;19018;49.046;9.140;2022-09-01T13:17:33;25.70;53.50
32594;DHT22;19018;49.046;9.140;2022-09-01T13:19:58;25.70;54.40
32594;DHT22;19018;49.046;9.140;2022-09-01T13:22:24;25.90;53.40
32594;DHT22;19018;49.046;9.140;2022-09-01T13:24:49;25.90;53.40
32594;DHT22;19018;49.046;9.140;2022-09-01T13:27:15;25.90;53.50
32594;DHT22;19018;49.046;9.140;2022-09-01T13:29:40;26.00;53.90
32594;DHT22;19018;49.046;9.140;2022-09-01T13:32:06;26.00;52.80
32594;DHT22;19018;49.046;9.140;2022-09-01T13:34:36;26.00;53.40
32594;DHT22;19018;49.046;9.140;2022-09-01T13:37:30;26.10;53.00
32594;DHT22;19018;49.046;9.140;2022-09-01T13:40:00;26.10;52.90
32594;DHT22;19018;49.046;9.140;2022-09-01T13:42:26;26.10;53.10
32594;DHT22;19018;49.046;9.140;2022-09-01T13:44:52;26.20;52.40
32594;DHT22;19018;49.046;9.140;2022-09-01T13:47:17;26.30;52.90
32594;DHT22;19018;49.046;9.140;2022-09-01T13:49:43;26.20;52.60
32594;DHT22;19018;49.046;9.140;2022-09-01T13:52:09;26.30;52.80
32594;DHT22;19018;49.046;9.140;2022-09-01T13:54:34;26.30;53.10
32594;DHT22;19018;49.046;9.140;2022-09-01T13:57:00;26.30;52.60
32594;DHT22;19018;49.046;9.140;2022-09-01T13:59:26;26.40;51.90
32594;DHT22;19018;49.046;9.140;2022-09-01T14:01:51;26.40;52.10
32594;DHT22;19018;49.046;9.140;2022-09-01T14:04:19;26.40;52.80
32594;DHT22;19018;49.046;9.140;2022-09-01T14:06:47;26.50;53.10
32594;DHT22;19018;49.046;9.140;2022-09-01T14:09:13;26.50;52.30
32594;DHT22;19018;49.046;9.140;2022-09-01T14:11:39;26.50;52.80
32594;DHT22;19018;49.046;9.140;2022-09-01T14:14:05;26.50;52.10
32594;DHT22;19018;49.046;9.140;2022-09-01T14:21:24;26.50;52.50
32594;DHT22;19018;49.046;9.140;2022-09-01T14:23:49;26.50;52.70
32594;DHT22;19018;49.046;9.140;2022-09-01T14:26:15;26.50;52.70
32594;DHT22;19018;49.046;9.140;2022-09-01T14:28:41;26.60;52.70
32594;DHT22;19018;49.046;9.140;2022-09-01T14:31:11;26.50;52.80
32594;DHT22;19018;49.046;9.140;2022-09-01T14:33:37;26.50;52.80
32594;DHT22;19018;49.046;9.140;2022-09-01T14:36:02;26.50;52.80
32594;DHT22;19018;49.046;9.140;2022-09-01T14:38:29;26.50;52.80
32594;DHT22;19018;49.046;9.140;2022-09-01T14:40:54;26.50;52.00
32594;DHT22;19018;49.046;9.140;2022-09-01T14:43:20;26.50;51.30
32594;DHT22;19018;49.046;9.140;2022-09-01T14:45:46;26.50;52.30
32594;DHT22;19018;49.046;9.140;2022-09-01T14:48:16;26.40;52.40
32594;DHT22;19018;49.046;9.140;2022-09-01T14:50:43;26.50;52.60
32594;DHT22;19018;49.046;9.140;2022-09-01T14:53:10;26.40;51.80
32594;DHT22;19018;49.046;9.140;2022-09-01T14:55:35;26.40;51.10
32594;DHT22;19018;49.046;9.140;2022-09-01T14:58:01;26.40;52.10
32594;DHT22;19018;49.046;9.140;2022-09-01T15:00:27;26.40;52.30
32594;DHT22;19018;49.046;9.140;2022-09-01T15:02:54;26.40;52.30
32594;DHT22;19018;49.046;9.140;2022-09-01T15:05:20;26.40;52.30
32594;DHT22;19018;49.046;9.140;2022-09-01T15:07:46;26.40;52.30
32594;DHT22;19018;49.046;9.140;2022-09-01T15:10:12;26.40;52.20
32594;DHT22;19018;49.046;9.140;2022-09-01T15:12:38;26.40;52.50
32594;DHT22;19018;49.046;9.140;2022-09-01T15:15:04;26.40;52.20
32594;DHT22;19018;49.046;9.140;2022-09-01T15:17:30;26.40;52.80
32594;DHT22;19018;49.046;9.140;2022-09-01T15:19:56;26.30;51.20
32594;DHT22;19018;49.046;9.140;2022-09-01T15:22:41;26.30;51.50
32594;DHT22;19018;49.046;9.140;2022-09-01T15:25:07;26.30;51.40
32594;DHT22;19018;49.046;9.140;2022-09-01T15:27:33;26.30;52.20
32594;DHT22;19018;49.046;9.140;2022-09-01T15:29:58;26.30;51.50
32594;DHT22;19018;49.046;9.140;2022-09-01T15:32:24;26.20;51.10
32594;DHT22;19018;49.046;9.140;2022-09-01T15:34:49;26.20;50.80
32594;DHT22;19018;49.046;9.140;2022-09-01T15:37:15;26.10;50.70
32594;DHT22;19018;49.046;9.140;2022-09-01T15:39:40;26.20;51.00
32594;DHT22;19018;49.046;9.140;2022-09-01T15:42:06;26.10;50.50
32594;DHT22;19018;49.046;9.140;2022-09-01T15:44:32;26.00;50.10
32594;DHT22;19018;49.046;9.140;2022-09-01T15:46:58;26.00;50.30
32594;DHT22;19018;49.046;9.140;2022-09-01T15:49:23;26.00;50.20
32594;DHT22;19018;49.046;9.140;2022-09-01T15:51:49;25.90;50.70
32594;DHT22;19018;49.046;9.140;2022-09-01T15:54:15;25.90;50.80
32594;DHT22;19018;49.046;9.140;2022-09-01T15:56:42;25.90;51.00
32594;DHT22;19018;49.046;9.140;2022-09-01T15:59:08;25.90;51.60
32594;DHT22;19018;49.046;9.140;2022-09-01T16:01:36;25.80;51.50
32594;DHT22;19018;49.046;9.140;2022-09-01T16:04:02;25.80;51.00
32594;DHT22;19018;49.046;9.140;2022-09-01T16:06:29;25.70;51.10
32594;DHT22;19018;49.046;9.140;2022-09-01T16:08:54;25.70;51.10
32594;DHT22;19018;49.046;9.140;2022-09-01T16:11:20;25.70;51.10
32594;DHT22;19018;49.046;9.140;2022-09-01T16:13:47;25.70;50.90
32594;DHT22;19018;49.046;9.140;2022-09-01T16:16:26;25.60;51.00
32594;DHT22;19018;49.046;9.140;2022-09-01T16:21:28;25.50;51.00
32594;DHT22;19018;49.046;9.140;2022-09-01T16:23:57;25.50;51.00
32594;DHT22;19018;49.046;9.140;2022-09-01T16:26:27;25.50;50.90
32594;DHT22;19018;49.046;9.140;2022-09-01T16:28:54;25.40;50.50
32594;DHT22;19018;49.046;9.140;2022-09-01T16:31:25;25.40;51.40
32594;DHT22;19018;49.046;9.140;2022-09-01T16:33:52;25.40;50.50
32594;DHT22;19018;49.046;9.140;2022-09-01T16:46:44;25.20;50.70
32594;DHT22;19018;49.046;9.140;2022-09-01T16:51:50;25.10;50.10
32594;DHT22;19018;49.046;9.140;2022-09-01T16:57:06;25.00;50.40
32594;DHT22;19018;49.046;9.140;2022-09-01T16:59:54;25.00;49.90
32594;DHT22;19018;49.046;9.140;2022-09-01T17:04:52;25.00;50.50
32594;DHT22;19018;49.046;9.140;2022-09-01T17:10:21;24.90;50.60
32594;DHT22;19018;49.046;9.140;2022-09-01T17:15:08;24.90;50.70